createdAt,value
2019-04-27T00:01:23.364Z,53.80
2019-04-27T00:04:06.643Z,48.87
2019-04-27T00:06:43.074Z,47.10
2019-04-27T00:09:23.309Z,44.70
2019-04-27T00:12:05.666Z,43.00
2019-04-27T00:14:35.702Z,42.13
2019-04-27T00:17:44.920Z,45.58
2019-04-27T00:20:21.614Z,38.67
2019-04-27T00:22:57.735Z,38.48
2019-04-27T00:25:27.550Z,33.85
2019-04-27T00:27:57.358Z,36.17
2019-04-27T00:30:27.076Z,34.30
2019-04-27T00:32:56.722Z,28.50
2019-04-27T00:35:33.469Z,27.40
2019-04-27T00:38:28.280Z,29.48
2019-04-27T00:41:03.001Z,25.82
2019-04-27T00:43:32.965Z,25.92
2019-04-27T00:46:04.051Z,25.85
2019-04-27T00:48:33.917Z,20.00
2019-04-27T00:51:04.941Z,20.30
2019-04-27T00:53:34.602Z,19.92
2019-04-27T00:56:17.857Z,17.92
2019-04-27T00:59:03.494Z,15.70
2019-04-27T01:01:37.903Z,13.98
2019-04-27T01:04:13.608Z,16.37
2019-04-27T01:06:43.806Z,14.03
2019-04-27T01:09:14.550Z,17.80
2019-04-27T01:11:44.350Z,12.65
2019-04-27T01:14:15.034Z,16.67
2019-04-27T01:16:44.692Z,15.58
2019-04-27T01:19:14.332Z,15.58
2019-04-27T01:21:44.060Z,16.62
2019-04-27T01:24:13.777Z,14.83
2019-04-27T01:27:02.718Z,16.25
2019-04-27T01:29:33.077Z,18.00
2019-04-27T01:32:03.458Z,17.05
2019-04-27T01:34:33.175Z,18.62
2019-04-27T01:37:02.853Z,14.43
2019-04-27T01:39:32.698Z,16.32
2019-04-27T01:42:02.362Z,21.35
2019-04-27T01:44:32.056Z,22.75
2019-04-27T01:47:01.769Z,22.37
2019-04-27T01:49:31.472Z,16.23
2019-04-27T01:52:01.279Z,26.65
2019-04-27T01:54:30.981Z,20.17
2019-04-27T01:57:00.956Z,19.67
2019-04-27T01:59:30.730Z,17.20
2019-04-27T02:02:10.611Z,16.52
2019-04-27T02:04:59.394Z,17.48
2019-04-27T02:07:30.052Z,22.45
2019-04-27T02:10:00.010Z,17.30
2019-04-27T02:12:31.507Z,22.82
2019-04-27T02:15:01.282Z,20.65
2019-04-27T02:17:31.155Z,18.45
2019-04-27T02:20:00.911Z,21.80
2019-04-27T02:22:31.154Z,17.80
2019-04-27T02:25:00.960Z,20.95
2019-04-27T02:27:32.498Z,16.37
2019-04-27T02:30:20.753Z,18.12
2019-04-27T02:33:12.361Z,23.25
2019-04-27T02:35:41.992Z,22.82
2019-04-27T02:38:12.259Z,20.73
2019-04-27T02:41:10.599Z,20.97
2019-04-27T02:44:01.749Z,25.00
2019-04-27T02:46:31.779Z,20.15
2019-04-27T02:49:06.421Z,20.60
2019-04-27T02:51:42.509Z,19.07
2019-04-27T02:54:12.703Z,20.32
2019-04-27T02:56:42.619Z,22.77
2019-04-27T02:59:12.342Z,25.82
2019-04-27T03:01:53.918Z,27.27
2019-04-27T03:04:23.644Z,28.15
2019-04-27T03:06:53.371Z,21.85
2019-04-27T03:09:23.039Z,23.55
2019-04-27T03:11:52.775Z,23.70
2019-04-27T03:14:47.144Z,25.17
2019-04-27T03:17:49.436Z,21.85
2019-04-27T03:20:40.289Z,20.15
2019-04-27T03:23:10.802Z,24.92
2019-04-27T03:25:52.686Z,21.17
2019-04-27T03:28:22.498Z,22.22
2019-04-27T03:30:52.827Z,22.95
2019-04-27T03:33:22.933Z,22.45
2019-04-27T03:35:53.225Z,24.12
2019-04-27T03:38:23.588Z,22.55
2019-04-27T03:40:53.436Z,31.07
2019-04-27T03:43:24.832Z,33.05
2019-04-27T03:45:54.864Z,27.25
2019-04-27T03:48:24.537Z,27.95
2019-04-27T03:51:12.552Z,22.85
2019-04-27T03:53:49.581Z,33.70
2019-04-27T03:56:39.374Z,29.07
2019-04-27T03:59:16.058Z,28.45
2019-04-27T04:01:45.818Z,32.90
2019-04-27T04:04:15.587Z,30.88
2019-04-27T04:06:45.302Z,27.82
2019-04-27T04:09:15.098Z,28.87
2019-04-27T04:11:59.158Z,30.12
2019-04-27T04:14:30.201Z,23.87
2019-04-27T04:17:03.227Z,30.92
2019-04-27T04:19:47.821Z,33.88
2019-04-27T04:22:05.981Z,31.57
2019-04-27T04:24:35.629Z,35.68
2019-04-27T04:27:05.415Z,35.43
2019-04-27T04:29:35.151Z,35.52
2019-04-27T04:32:04.955Z,31.00
2019-04-27T04:34:34.816Z,33.28
2019-04-27T04:37:05.030Z,36.58
2019-04-27T04:39:34.777Z,35.58
2019-04-27T04:42:14.994Z,31.97
2019-04-27T04:45:10.716Z,37.05
2019-04-27T04:47:44.862Z,34.88
2019-04-27T04:50:15.493Z,36.03
2019-04-27T04:52:45.464Z,33.92
2019-04-27T04:55:15.235Z,37.95
2019-04-27T04:57:45.012Z,37.17
2019-04-27T05:00:14.994Z,30.20
2019-04-27T05:02:44.693Z,37.00
2019-04-27T05:05:14.604Z,41.20
2019-04-27T05:07:44.334Z,48.85
2019-04-27T05:10:14.097Z,51.98
2019-04-27T05:12:43.764Z,57.23
2019-04-27T05:15:14.446Z,52.73
2019-04-27T05:17:44.091Z,53.45
2019-04-27T05:20:41.919Z,54.42
2019-04-27T05:23:11.597Z,53.65
2019-04-27T05:25:41.288Z,53.13
2019-04-27T05:28:10.980Z,65.90
2019-04-27T05:30:40.674Z,70.57
2019-04-27T05:33:10.402Z,64.07
2019-04-27T05:35:41.054Z,58.52
2019-04-27T05:38:13.388Z,74.33
2019-04-27T05:40:42.371Z,73.05
2019-04-27T05:43:13.812Z,69.75
2019-04-27T05:46:20.556Z,77.95
2019-04-27T05:48:50.238Z,74.65
2019-04-27T05:51:20.048Z,71.93
2019-04-27T05:53:49.815Z,84.17
2019-04-27T05:56:21.527Z,78.60
2019-04-27T05:58:51.343Z,82.37
2019-04-27T06:01:21.138Z,80.07
2019-04-27T06:03:50.809Z,76.05
2019-04-27T06:06:20.589Z,77.00
2019-04-27T06:08:50.302Z,65.12
2019-04-27T06:11:20.014Z,66.87
2019-04-27T06:13:49.775Z,73.22
2019-04-27T06:16:19.594Z,61.35
2019-04-27T06:18:49.447Z,60.83
2019-04-27T06:21:19.668Z,61.55
2019-04-27T06:23:49.461Z,63.73
2019-04-27T06:26:20.156Z,58.40
2019-04-27T06:28:51.700Z,53.08
2019-04-27T06:31:22.378Z,53.78
2019-04-27T06:33:52.138Z,45.40
2019-04-27T06:36:21.818Z,44.93
2019-04-27T06:38:51.486Z,48.80
2019-04-27T06:41:21.226Z,48.33
2019-04-27T06:43:50.922Z,41.88
2019-04-27T06:46:20.662Z,41.23
2019-04-27T06:48:50.325Z,39.53
2019-04-27T06:51:20.079Z,42.78
2019-04-27T06:53:50.004Z,36.30
2019-04-27T06:56:19.821Z,34.25
2019-04-27T06:58:50.497Z,31.35
2019-04-27T07:01:20.235Z,32.10
2019-04-27T07:03:49.934Z,30.17
2019-04-27T07:06:19.895Z,30.37
2019-04-27T07:08:51.050Z,30.95
2019-04-27T07:11:20.757Z,31.70
2019-04-27T07:13:50.847Z,26.93
2019-04-27T07:16:20.736Z,27.98
2019-04-27T07:18:50.526Z,26.17
2019-04-27T07:21:24.734Z,23.52
2019-04-27T07:23:59.484Z,22.05
2019-04-27T07:26:30.370Z,21.30
2019-04-27T07:29:00.333Z,22.82
2019-04-27T07:31:31.835Z,20.50
2019-04-27T07:34:01.516Z,21.42
2019-04-27T07:36:31.517Z,25.32
2019-04-27T07:39:01.220Z,14.80
2019-04-27T07:41:32.818Z,12.20
2019-04-27T07:44:08.417Z,13.80
2019-04-27T07:46:39.266Z,11.95
2019-04-27T07:49:09.377Z,8.40
2019-04-27T07:51:39.371Z,11.08
2019-04-27T07:54:09.189Z,11.15
2019-04-27T07:56:39.078Z,14.60
2019-04-27T07:59:09.196Z,10.98
2019-04-27T08:01:39.391Z,12.45
2019-04-27T08:04:09.295Z,15.53
2019-04-27T08:06:39.149Z,16.17
2019-04-27T08:09:09.480Z,12.10
2019-04-27T08:11:39.441Z,10.20
2019-04-27T08:14:09.161Z,11.15
2019-04-27T08:16:38.990Z,11.18
2019-04-27T08:19:09.928Z,7.33
2019-04-27T08:21:44.445Z,8.60
2019-04-27T08:24:11.365Z,13.88
2019-04-27T08:26:49.857Z,14.13
2019-04-27T08:29:37.339Z,14.73
2019-04-27T08:32:11.859Z,13.80
2019-04-27T08:34:41.812Z,16.02
2019-04-27T08:37:11.771Z,17.82
2019-04-27T08:39:41.927Z,18.02
2019-04-27T08:42:11.743Z,20.57
2019-04-27T08:44:41.436Z,19.27
2019-04-27T08:47:11.350Z,17.35
2019-04-27T08:49:41.015Z,18.98
2019-04-27T08:52:10.748Z,21.90
2019-04-27T08:54:40.442Z,21.37
2019-04-27T08:57:10.166Z,24.85
2019-04-27T08:59:39.936Z,24.43
2019-04-27T09:02:10.835Z,25.55
2019-04-27T09:04:40.540Z,23.22
2019-04-27T09:07:29.460Z,24.82
2019-04-27T09:10:05.297Z,23.62
2019-04-27T09:12:53.670Z,28.60
2019-04-27T09:15:31.661Z,26.93
2019-04-27T09:18:01.482Z,23.77
2019-04-27T09:20:40.538Z,25.62
2019-04-27T09:23:10.387Z,27.27
2019-04-27T09:25:40.232Z,26.55
2019-04-27T09:28:10.962Z,29.10
2019-04-27T09:30:41.132Z,27.32
2019-04-27T09:33:10.811Z,25.30
2019-04-27T09:35:40.544Z,28.30
2019-04-27T09:38:10.244Z,29.50
2019-04-27T09:40:40.038Z,33.23
2019-04-27T09:43:09.747Z,28.80
2019-04-27T09:45:39.485Z,29.85
2019-04-27T09:48:09.168Z,28.10
2019-04-27T09:50:38.889Z,27.58
2019-04-27T09:53:08.885Z,32.08
2019-04-27T09:55:38.618Z,30.02
2019-04-27T09:58:08.400Z,27.98
2019-04-27T10:00:38.037Z,27.98
2019-04-27T10:03:07.775Z,29.98
2019-04-27T10:05:37.557Z,28.92
2019-04-27T10:08:07.837Z,31.23
2019-04-27T10:10:37.521Z,30.57
2019-04-27T10:13:07.271Z,29.87
2019-04-27T10:15:37.059Z,29.05
2019-04-27T10:18:07.141Z,30.17
2019-04-27T10:20:40.531Z,31.60
2019-04-27T10:23:08.625Z,29.72
2019-04-27T10:25:38.340Z,29.23
2019-04-27T10:28:08.238Z,25.30
2019-04-27T10:30:38.622Z,19.98
2019-04-27T10:33:08.372Z,18.30
2019-04-27T10:35:38.076Z,21.00
2019-04-27T10:38:07.910Z,19.98
2019-04-27T10:40:37.606Z,23.95
2019-04-27T10:43:07.401Z,20.12
2019-04-27T10:45:37.878Z,20.23
2019-04-27T10:48:07.805Z,21.65
2019-04-27T10:50:37.759Z,26.02
2019-04-27T10:53:08.402Z,22.13
2019-04-27T10:55:38.151Z,18.00
2019-04-27T10:58:08.557Z,19.12
2019-04-27T11:00:43.587Z,17.42
2019-04-27T11:03:16.602Z,19.30
2019-04-27T11:06:05.921Z,19.80
2019-04-27T11:08:35.743Z,16.27
2019-04-27T11:11:05.469Z,15.18
2019-04-27T11:13:36.217Z,15.38
2019-04-27T11:16:06.593Z,14.63
2019-04-27T11:18:37.255Z,13.85
2019-04-27T11:21:07.199Z,17.07
2019-04-27T11:23:36.897Z,17.20
2019-04-27T11:26:07.645Z,15.38
2019-04-27T11:28:37.436Z,17.45
2019-04-27T11:31:07.862Z,15.65
2019-04-27T11:33:37.574Z,13.53
2019-04-27T11:36:25.584Z,15.32
2019-04-27T11:38:56.586Z,15.43
2019-04-27T11:41:26.406Z,17.32
2019-04-27T11:43:56.592Z,14.63
2019-04-27T11:46:26.751Z,15.08
2019-04-27T11:48:58.349Z,14.68
2019-04-27T11:51:28.313Z,16.40
2019-04-27T11:53:59.346Z,15.03
2019-04-27T11:56:29.027Z,15.95
2019-04-27T11:58:59.824Z,15.15
2019-04-27T12:01:29.576Z,15.08
2019-04-27T12:03:59.304Z,16.77
2019-04-27T12:06:29.015Z,15.15
2019-04-27T12:08:58.789Z,15.05
2019-04-27T12:11:28.500Z,17.57
2019-04-27T12:13:58.389Z,16.80
2019-04-27T12:16:28.143Z,16.00
2019-04-27T12:18:57.922Z,16.37
2019-04-27T12:21:27.642Z,17.60
2019-04-27T12:23:57.486Z,15.93
2019-04-27T12:26:32.734Z,15.70
2019-04-27T12:29:03.763Z,15.80
2019-04-27T12:31:39.060Z,17.87
2019-04-27T12:34:10.243Z,22.07
2019-04-27T12:36:39.954Z,20.80
2019-04-27T12:39:12.118Z,21.42
2019-04-27T12:41:42.382Z,20.57
2019-04-27T12:44:13.360Z,18.32
2019-04-27T12:46:43.158Z,17.17
2019-04-27T12:49:12.922Z,17.57
2019-04-27T12:51:45.610Z,16.97
2019-04-27T12:54:33.336Z,20.00
2019-04-27T12:57:21.066Z,17.75
2019-04-27T12:59:59.372Z,18.20
2019-04-27T13:02:31.508Z,21.82
2019-04-27T13:05:01.361Z,23.87
2019-04-27T13:07:31.113Z,21.30
2019-04-27T13:10:01.215Z,20.27
2019-04-27T13:12:31.008Z,20.68
2019-04-27T13:15:00.978Z,22.32
2019-04-27T13:17:30.883Z,19.73
2019-04-27T13:20:00.608Z,22.17
2019-04-27T13:22:31.548Z,21.40
2019-04-27T13:25:01.222Z,23.27
2019-04-27T13:27:32.071Z,25.08
2019-04-27T13:30:04.694Z,25.05
2019-04-27T13:32:33.437Z,23.00
2019-04-27T13:35:03.233Z,20.32
2019-04-27T13:37:36.963Z,22.40
2019-04-27T13:40:09.707Z,23.18
2019-04-27T13:42:48.072Z,24.43
2019-04-27T13:45:26.716Z,24.87
2019-04-27T13:48:27.939Z,25.85
2019-04-27T13:51:00.070Z,25.85
2019-04-27T13:53:29.816Z,28.98
2019-04-27T13:56:02.145Z,24.92
2019-04-27T13:58:32.061Z,27.75
2019-04-27T14:01:01.795Z,29.07
2019-04-27T14:03:33.679Z,25.82
2019-04-27T14:06:03.648Z,23.25
2019-04-27T14:08:33.613Z,21.07
2019-04-27T14:11:03.465Z,24.12
2019-04-27T14:13:33.222Z,22.98
2019-04-27T14:16:02.947Z,22.05
2019-04-27T14:18:32.813Z,21.75
2019-04-27T14:21:02.586Z,19.00
2019-04-27T14:23:33.299Z,24.40
2019-04-27T14:26:03.289Z,25.62
2019-04-27T14:28:33.072Z,22.30
2019-04-27T14:31:03.058Z,23.10
2019-04-27T14:33:32.790Z,22.35
2019-04-27T14:36:02.588Z,24.12
2019-04-27T14:38:32.402Z,21.95
2019-04-27T14:41:02.145Z,22.62
2019-04-27T14:43:32.018Z,22.42
2019-04-27T14:46:01.671Z,23.00
2019-04-27T14:48:31.730Z,25.10
2019-04-27T14:51:01.583Z,24.65
2019-04-27T14:53:31.502Z,25.32
2019-04-27T14:56:01.312Z,29.82
2019-04-27T14:58:31.125Z,23.90
2019-04-27T15:01:01.095Z,20.60
2019-04-27T15:03:31.203Z,23.10
2019-04-27T15:06:02.001Z,17.07
2019-04-27T15:08:34.028Z,19.90
2019-04-27T15:11:04.186Z,15.38
2019-04-27T15:13:37.841Z,14.83
2019-04-27T15:16:08.033Z,16.37
2019-04-27T15:18:43.773Z,18.60
2019-04-27T15:21:13.642Z,23.20
2019-04-27T15:23:43.514Z,19.35
2019-04-27T15:26:15.419Z,23.85
2019-04-27T15:28:49.542Z,23.18
2019-04-27T15:31:27.113Z,22.30
2019-04-27T15:34:04.557Z,23.62
2019-04-27T15:36:42.134Z,23.18
2019-04-27T15:39:22.585Z,20.65
2019-04-27T15:41:54.142Z,19.37
2019-04-27T15:44:23.954Z,19.82
2019-04-27T15:46:53.929Z,22.32
2019-04-27T15:49:23.631Z,23.70
2019-04-27T15:51:54.686Z,19.50
2019-04-27T15:54:29.071Z,20.57
2019-04-27T15:56:58.030Z,21.12
2019-04-27T15:59:30.874Z,19.17
2019-04-27T16:01:59.477Z,18.90
2019-04-27T16:04:29.140Z,21.02
2019-04-27T16:07:00.523Z,19.87
2019-04-27T16:09:30.482Z,16.67
2019-04-27T16:12:09.999Z,17.80
2019-04-27T16:14:31.664Z,19.25
2019-04-27T16:17:02.927Z,21.12
2019-04-27T16:19:33.026Z,18.55
2019-04-27T16:22:04.205Z,20.88
2019-04-27T16:24:35.019Z,23.22
2019-04-27T16:27:05.404Z,19.95
2019-04-27T16:29:35.066Z,24.47
2019-04-27T16:32:09.599Z,23.22
2019-04-27T16:34:37.883Z,20.65
2019-04-27T16:37:09.811Z,23.87
2019-04-27T16:39:45.491Z,20.10
2019-04-27T16:42:14.283Z,19.20
2019-04-27T16:44:44.256Z,20.95
2019-04-27T16:47:18.886Z,24.75
2019-04-27T16:49:48.391Z,20.68
2019-04-27T16:52:19.272Z,17.15
2019-04-27T16:54:57.137Z,16.37
2019-04-27T16:57:22.743Z,10.20
2019-04-27T16:59:57.512Z,9.43
2019-04-27T17:02:25.346Z,6.72
2019-04-27T17:04:55.781Z,7.12
2019-04-27T17:07:30.198Z,6.53
2019-04-27T17:09:59.520Z,10.85
2019-04-27T17:12:33.159Z,11.75
2019-04-27T17:15:18.956Z,12.85
2019-04-27T17:18:13.966Z,11.65
2019-04-27T17:20:59.341Z,12.50
2019-04-27T17:23:31.241Z,14.07
2019-04-27T17:26:04.414Z,15.78
2019-04-27T17:28:42.682Z,14.40
2019-04-27T17:31:19.767Z,20.20
2019-04-27T17:33:50.528Z,16.42
2019-04-27T17:36:20.427Z,16.37
2019-04-27T17:38:51.109Z,17.32
2019-04-27T17:41:21.307Z,19.30
2019-04-27T17:43:51.176Z,18.25
2019-04-27T17:46:22.078Z,17.77
2019-04-27T17:48:52.192Z,19.60
2019-04-27T17:51:22.139Z,19.50
2019-04-27T17:53:52.123Z,22.00
2019-04-27T17:56:33.295Z,18.52
2019-04-27T17:58:54.643Z,21.65
2019-04-27T18:01:29.302Z,20.70
2019-04-27T18:04:00.037Z,20.35
2019-04-27T18:06:29.418Z,22.58
2019-04-27T18:09:00.531Z,19.45
2019-04-27T18:11:32.952Z,19.95
2019-04-27T18:14:02.969Z,18.75
2019-04-27T18:16:34.421Z,22.67
2019-04-27T18:19:25.274Z,20.82
2019-04-27T18:22:00.886Z,20.60
2019-04-27T18:24:49.318Z,27.20
2019-04-27T18:27:26.906Z,19.43
2019-04-27T18:30:10.445Z,24.60
2019-04-27T18:32:40.477Z,18.15
2019-04-27T18:35:11.301Z,19.67
2019-04-27T18:37:42.049Z,20.20
2019-04-27T18:40:12.046Z,20.75
2019-04-27T18:42:42.165Z,19.48
2019-04-27T18:45:11.998Z,17.45
2019-04-27T18:47:43.498Z,19.55
2019-04-27T18:50:28.219Z,18.45
2019-04-27T18:53:03.841Z,18.82
2019-04-27T18:55:33.762Z,19.60
2019-04-27T18:58:03.982Z,19.67
2019-04-27T19:00:33.781Z,16.57
2019-04-27T19:03:03.739Z,17.02
2019-04-27T19:05:40.033Z,17.42
2019-04-27T19:08:06.125Z,16.90
2019-04-27T19:10:35.845Z,16.57
2019-04-27T19:13:06.149Z,17.30
2019-04-27T19:15:36.134Z,14.43
2019-04-27T19:18:06.161Z,13.43
2019-04-27T19:20:35.893Z,12.93
2019-04-27T19:23:05.747Z,15.13
2019-04-27T19:26:03.727Z,15.75
2019-04-27T19:29:08.607Z,16.87
2019-04-27T19:31:42.655Z,17.45
2019-04-27T19:34:12.415Z,15.75
2019-04-27T19:36:42.189Z,15.35
2019-04-27T19:39:14.023Z,14.40
2019-04-27T19:41:56.917Z,15.55
2019-04-27T19:44:18.829Z,13.98
2019-04-27T19:46:49.292Z,15.63
2019-04-27T19:49:20.258Z,15.03
2019-04-27T19:51:49.998Z,13.45
2019-04-27T19:54:19.789Z,15.08
2019-04-27T19:56:50.002Z,13.80
2019-04-27T19:59:24.679Z,13.55
2019-04-27T20:01:58.306Z,11.97
2019-04-27T20:04:37.085Z,12.43
2019-04-27T20:07:10.351Z,12.98
2019-04-27T20:10:03.446Z,13.00
2019-04-27T20:12:33.265Z,11.95
2019-04-27T20:15:03.176Z,14.87
2019-04-27T20:17:34.099Z,12.90
2019-04-27T20:20:05.293Z,16.60
2019-04-27T20:22:34.988Z,13.18
2019-04-27T20:25:05.622Z,14.40
2019-04-27T20:27:46.021Z,15.13
2019-04-27T20:30:08.544Z,12.82
2019-04-27T20:32:38.300Z,13.58
2019-04-27T20:35:08.273Z,14.33
2019-04-27T20:37:38.058Z,12.07
2019-04-27T20:40:09.086Z,14.25
2019-04-27T20:42:38.719Z,14.28
2019-04-27T20:45:09.282Z,12.70
2019-04-27T20:47:39.058Z,13.45
2019-04-27T20:50:09.482Z,12.65
2019-04-27T20:52:58.424Z,13.03
2019-04-27T20:55:28.564Z,15.53
2019-04-27T20:58:02.357Z,15.38
2019-04-27T21:00:31.805Z,13.25
2019-04-27T21:03:11.773Z,15.23
2019-04-27T21:05:51.111Z,14.90
2019-04-27T21:08:21.855Z,13.32
2019-04-27T21:10:51.693Z,15.95
2019-04-27T21:13:21.453Z,13.98
2019-04-27T21:15:51.255Z,12.30
2019-04-27T21:18:21.702Z,15.87
2019-04-27T21:20:51.797Z,13.75
2019-04-27T21:23:21.618Z,15.60
2019-04-27T21:25:53.545Z,17.62
2019-04-27T21:28:22.687Z,19.60
2019-04-27T21:30:52.367Z,16.07
2019-04-27T21:33:22.197Z,18.45
2019-04-27T21:35:51.875Z,14.68
2019-04-27T21:38:21.601Z,15.72
2019-04-27T21:40:52.336Z,19.07
2019-04-27T21:43:22.043Z,19.95
2019-04-27T21:45:51.851Z,16.60
2019-04-27T21:48:21.561Z,15.70
2019-04-27T21:50:51.752Z,18.00
2019-04-27T21:53:31.317Z,16.73
2019-04-27T21:56:02.605Z,16.65
2019-04-27T21:58:33.344Z,14.47
2019-04-27T22:01:24.071Z,16.40
2019-04-27T22:03:53.860Z,17.07
2019-04-27T22:06:23.542Z,16.00
2019-04-27T22:08:53.358Z,11.22
2019-04-27T22:11:23.119Z,14.25
2019-04-27T22:13:52.858Z,17.30
2019-04-27T22:16:22.644Z,12.23
2019-04-27T22:18:52.413Z,12.00
2019-04-27T22:21:22.119Z,16.10
2019-04-27T22:24:11.181Z,13.88
2019-04-27T22:26:41.473Z,14.18
2019-04-27T22:29:12.624Z,16.52
2019-04-27T22:31:42.389Z,14.05
2019-04-27T22:34:12.096Z,14.65
2019-04-27T22:36:42.803Z,17.77
2019-04-27T22:39:26.884Z,15.40
2019-04-27T22:42:16.822Z,15.15
2019-04-27T22:44:51.523Z,16.65
2019-04-27T22:47:22.175Z,16.82
2019-04-27T22:49:51.878Z,16.05
2019-04-27T22:52:21.908Z,18.20
2019-04-27T22:54:51.633Z,19.92
2019-04-27T22:57:27.153Z,19.67
2019-04-27T23:00:18.997Z,18.02
2019-04-27T23:02:53.509Z,18.75
2019-04-27T23:05:23.315Z,16.00
2019-04-27T23:07:53.118Z,14.70
2019-04-27T23:10:25.424Z,19.35
2019-04-27T23:12:54.436Z,18.57
2019-04-27T23:15:26.490Z,16.05
2019-04-27T23:17:57.607Z,14.07
2019-04-27T23:20:27.538Z,12.18
2019-04-27T23:22:57.413Z,14.80
2019-04-27T23:25:27.223Z,11.63
2019-04-27T23:27:56.945Z,15.30
2019-04-27T23:30:37.373Z,13.38
2019-04-27T23:33:07.078Z,13.93
2019-04-27T23:35:36.801Z,14.18
2019-04-27T23:38:16.831Z,16.27
2019-04-27T23:40:38.946Z,13.22
2019-04-27T23:43:08.625Z,13.53
2019-04-27T23:45:38.351Z,14.60
2019-04-27T23:48:08.064Z,12.07
2019-04-27T23:50:39.774Z,12.93
2019-04-27T23:53:18.115Z,12.50
2019-04-27T23:55:47.910Z,13.25
2019-04-27T23:58:17.758Z,16.25
